createdAt,value
2019-06-07T00:00:37.262Z,19.66
2019-06-07T00:01:21.366Z,19.71
2019-06-07T00:02:20.357Z,19.70
2019-06-07T00:03:27.420Z,19.70
2019-06-07T00:04:21.641Z,19.73
2019-06-07T00:05:20.362Z,19.73
2019-06-07T00:06:29.691Z,19.66
2019-06-07T00:07:21.808Z,19.79
2019-06-07T00:08:27.317Z,19.71
2019-06-07T00:09:22.520Z,19.71
2019-06-07T00:10:35.932Z,19.71
2019-06-07T00:11:21.283Z,19.66
2019-06-07T00:12:21.607Z,19.70
2019-06-07T00:13:20.491Z,19.73
2019-06-07T00:14:21.162Z,19.73
2019-06-07T00:15:28.045Z,19.73
2019-06-07T00:16:23.220Z,19.73
2019-06-07T00:17:20.590Z,19.79
2019-06-07T00:18:25.460Z,19.71
2019-06-07T00:19:21.169Z,19.77
2019-06-07T00:20:23.422Z,19.79
2019-06-07T00:21:20.559Z,19.79
2019-06-07T00:22:32.240Z,19.77
2019-06-07T00:23:22.913Z,19.85
2019-06-07T00:24:21.819Z,19.77
2019-06-07T00:25:24.129Z,19.76
2019-06-07T00:26:21.299Z,19.73
2019-06-07T00:27:22.218Z,19.81
2019-06-07T00:28:20.212Z,19.73
2019-06-07T00:29:21.851Z,19.74
2019-06-07T00:30:37.575Z,19.70
2019-06-07T00:31:24.130Z,19.73
2019-06-07T00:32:22.026Z,19.74
2019-06-07T00:33:24.066Z,19.71
2019-06-07T00:34:22.563Z,19.63
2019-06-07T00:35:22.368Z,19.71
2019-06-07T00:36:23.049Z,19.71
2019-06-07T00:37:23.445Z,19.71
2019-06-07T00:38:21.962Z,19.70
2019-06-07T00:39:24.593Z,19.74
2019-06-07T00:40:31.110Z,19.69
2019-06-07T00:41:22.275Z,19.77
2019-06-07T00:42:21.631Z,19.73
2019-06-07T00:43:26.050Z,19.73
2019-06-07T00:44:23.102Z,19.71
2019-06-07T00:45:22.396Z,19.73
2019-06-07T00:46:21.633Z,19.77
2019-06-07T00:47:24.952Z,19.73
2019-06-07T00:48:31.334Z,19.70
2019-06-07T00:49:36.189Z,19.71
2019-06-07T00:50:23.922Z,19.67
2019-06-07T00:51:21.908Z,19.58
2019-06-07T00:53:11.583Z,19.73
2019-06-07T00:53:29.813Z,19.70
2019-06-07T00:54:22.485Z,19.55
2019-06-07T00:55:22.596Z,19.67
2019-06-07T00:56:22.203Z,19.62
2019-06-07T00:57:21.529Z,19.63
2019-06-07T00:58:21.855Z,19.62
2019-06-07T00:59:25.244Z,19.55
2019-06-07T01:00:23.616Z,19.52
2019-06-07T01:01:22.266Z,19.62
2019-06-07T01:02:24.705Z,19.62
2019-06-07T01:03:25.243Z,19.64
2019-06-07T01:04:22.939Z,19.59
2019-06-07T01:05:23.525Z,19.62
2019-06-07T01:06:22.964Z,19.58
2019-06-07T01:07:20.405Z,19.62
2019-06-07T01:08:22.760Z,19.54
2019-06-07T01:09:23.962Z,19.55
2019-06-07T01:10:46.031Z,19.59
2019-06-07T01:11:23.221Z,19.59
2019-06-07T01:12:21.558Z,19.59
2019-06-07T01:13:23.788Z,19.58
2019-06-07T01:14:24.146Z,19.64
2019-06-07T01:15:22.706Z,19.62
2019-06-07T01:16:22.252Z,19.63
2019-06-07T01:17:28.046Z,19.70
2019-06-07T01:18:40.992Z,19.67
2019-06-07T01:19:22.342Z,19.58
2019-06-07T01:20:22.794Z,19.70
2019-06-07T01:21:21.711Z,19.70
2019-06-07T01:22:20.704Z,19.59
2019-06-07T01:24:04.684Z,19.58
2019-06-07T01:24:24.523Z,19.66
2019-06-07T01:25:23.812Z,19.59
2019-06-07T01:26:22.444Z,19.63
2019-06-07T01:27:22.559Z,19.56
2019-06-07T01:28:21.423Z,19.64
2019-06-07T01:29:20.042Z,19.64
2019-06-07T01:30:22.801Z,19.59
2019-06-07T01:31:22.539Z,19.63
2019-06-07T01:32:21.097Z,19.58
2019-06-07T01:33:20.864Z,19.54
2019-06-07T01:34:21.116Z,19.55
2019-06-07T01:35:20.631Z,19.58
2019-06-07T01:36:20.054Z,19.58
2019-06-07T01:37:20.185Z,19.54
2019-06-07T01:38:21.923Z,19.56
2019-06-07T01:39:21.087Z,19.49
2019-06-07T01:40:20.767Z,19.52
2019-06-07T01:41:22.068Z,19.48
2019-06-07T01:42:22.001Z,19.37
2019-06-07T01:43:20.160Z,19.40
2019-06-07T01:44:23.664Z,19.45
2019-06-07T01:45:21.289Z,19.37
2019-06-07T01:46:20.736Z,19.36
2019-06-07T01:47:21.178Z,19.41
2019-06-07T01:48:23.184Z,19.37
2019-06-07T01:49:21.942Z,19.37
2019-06-07T01:50:22.586Z,19.39
2019-06-07T01:51:20.219Z,19.37
2019-06-07T01:52:19.616Z,19.30
2019-06-07T01:53:23.395Z,19.24
2019-06-07T01:54:54.324Z,19.30
2019-06-07T01:55:23.665Z,19.29
2019-06-07T01:56:21.991Z,19.29
2019-06-07T01:57:36.516Z,19.27
2019-06-07T01:58:21.808Z,19.27
2019-06-07T01:59:21.892Z,19.31
2019-06-07T02:00:21.567Z,19.24
2019-06-07T02:01:19.842Z,19.21
2019-06-07T02:02:20.169Z,19.26
2019-06-07T02:03:21.383Z,19.22
2019-06-07T02:04:22.912Z,19.16
2019-06-07T02:05:20.904Z,19.16
2019-06-07T02:06:20.971Z,19.24
2019-06-07T02:07:20.408Z,19.16
2019-06-07T02:08:21.479Z,19.21
2019-06-07T02:09:19.012Z,19.19
2019-06-07T02:10:19.652Z,19.15
2019-06-07T02:11:20.954Z,19.14
2019-06-07T02:12:29.646Z,19.07
2019-06-07T02:13:21.258Z,19.11
2019-06-07T02:14:19.625Z,19.11
2019-06-07T02:15:21.687Z,19.07
2019-06-07T02:16:19.358Z,19.11
2019-06-07T02:17:20.243Z,19.04
2019-06-07T02:18:21.783Z,19.08
2019-06-07T02:19:19.506Z,18.98
2019-06-07T02:20:20.367Z,18.92
2019-06-07T02:21:21.141Z,19.04
2019-06-07T02:22:21.411Z,19.04
2019-06-07T02:23:20.349Z,19.00
2019-06-07T02:24:21.309Z,18.95
2019-06-07T02:25:39.313Z,19.00
2019-06-07T02:26:20.433Z,19.04
2019-06-07T02:27:18.796Z,18.98
2019-06-07T02:28:30.112Z,18.96
2019-06-07T02:29:20.486Z,18.98
2019-06-07T02:31:21.501Z,18.95
2019-06-07T02:32:18.749Z,19.00
2019-06-07T02:33:18.731Z,18.93
2019-06-07T02:34:18.761Z,18.96
2019-06-07T02:35:18.712Z,18.96
2019-06-07T02:36:18.700Z,18.93
2019-06-07T02:37:18.687Z,19.00
2019-06-07T02:38:18.677Z,18.95
2019-06-07T02:39:18.694Z,18.93
2019-06-07T02:40:18.660Z,18.90
2019-06-07T02:41:18.651Z,18.92
2019-06-07T02:42:18.636Z,18.92
2019-06-07T02:43:18.624Z,18.86
2019-06-07T02:44:18.648Z,18.90
2019-06-07T02:45:18.608Z,18.88
2019-06-07T02:46:26.422Z,18.96
2019-06-07T02:47:19.582Z,18.83
2019-06-07T02:48:18.572Z,18.86
2019-06-07T02:49:18.565Z,18.89
2019-06-07T02:50:18.592Z,18.78
2019-06-07T02:51:18.543Z,18.83
2019-06-07T02:52:18.530Z,18.80
2019-06-07T02:53:18.529Z,18.83
2019-06-07T02:54:18.507Z,18.77
2019-06-07T02:55:18.522Z,18.78
2019-06-07T02:56:43.936Z,18.81
2019-06-07T02:57:19.484Z,18.78
2019-06-07T02:58:18.469Z,18.80
2019-06-07T02:59:18.461Z,18.78
2019-06-07T03:00:41.978Z,18.83
2019-06-07T03:01:19.444Z,18.80
2019-06-07T03:02:18.471Z,18.81
2019-06-07T03:03:18.488Z,18.81
2019-06-07T03:04:18.402Z,18.78
2019-06-07T03:05:18.392Z,18.77
2019-06-07T03:06:18.414Z,18.81
2019-06-07T03:07:18.388Z,18.80
2019-06-07T03:08:18.350Z,18.84
2019-06-07T03:09:18.348Z,18.83
2019-06-07T03:10:18.332Z,18.86
2019-06-07T03:11:18.324Z,18.83
2019-06-07T03:12:18.355Z,18.84
2019-06-07T03:13:18.308Z,18.78
2019-06-07T03:14:18.286Z,18.86
2019-06-07T03:15:32.811Z,18.84
2019-06-07T03:16:19.298Z,18.84
2019-06-07T03:17:18.259Z,18.90
2019-06-07T03:18:18.251Z,18.95
2019-06-07T03:19:18.240Z,18.90
2019-06-07T03:20:18.233Z,18.95
2019-06-07T03:21:18.215Z,18.95
2019-06-07T03:22:18.232Z,18.92
2019-06-07T03:23:18.259Z,18.90
2019-06-07T03:24:18.183Z,18.95
2019-06-07T03:25:18.177Z,18.93
2019-06-07T03:26:18.158Z,18.98
2019-06-07T03:27:41.321Z,18.98
2019-06-07T03:28:19.165Z,18.90
2019-06-07T03:29:18.129Z,18.92
2019-06-07T03:30:58.018Z,18.95
2019-06-07T03:31:19.104Z,18.95
2019-06-07T03:32:18.098Z,18.95
2019-06-07T03:33:18.126Z,18.99
2019-06-07T03:34:18.067Z,18.96
2019-06-07T03:35:18.095Z,18.99
2019-06-07T03:36:24.043Z,18.95
2019-06-07T03:37:19.063Z,19.02
2019-06-07T03:38:18.025Z,18.98
2019-06-07T03:39:18.016Z,18.98
2019-06-07T03:40:18.008Z,19.00
2019-06-07T03:41:17.995Z,19.04
2019-06-07T03:42:18.016Z,19.02
2019-06-07T03:43:18.007Z,18.95
2019-06-07T03:44:17.967Z,18.95
2019-06-07T03:45:17.977Z,18.96
2019-06-07T03:46:17.940Z,18.98
2019-06-07T03:47:17.967Z,18.98
2019-06-07T03:48:17.922Z,18.98
2019-06-07T03:49:17.916Z,18.88
2019-06-07T03:50:17.901Z,18.90
2019-06-07T03:51:25.142Z,18.93
2019-06-07T03:52:18.916Z,18.93
2019-06-07T03:53:17.871Z,18.92
2019-06-07T03:54:17.850Z,18.92
2019-06-07T03:55:17.844Z,18.95
2019-06-07T03:56:17.837Z,18.95
2019-06-07T03:57:17.821Z,18.90
2019-06-07T03:58:31.217Z,18.93
2019-06-07T03:59:18.796Z,18.83
2019-06-07T04:00:17.794Z,18.88
2019-06-07T04:01:17.789Z,18.86
2019-06-07T04:02:17.769Z,18.88
2019-06-07T04:03:32.767Z,18.86
2019-06-07T04:04:18.744Z,18.84
2019-06-07T04:05:17.752Z,18.86
2019-06-07T04:06:17.726Z,18.81
2019-06-07T04:07:17.717Z,18.84
2019-06-07T04:08:17.742Z,18.78
2019-06-07T04:09:17.694Z,18.90
2019-06-07T04:10:17.781Z,18.80
2019-06-07T04:11:17.673Z,18.84
2019-06-07T04:12:17.661Z,18.84
2019-06-07T04:13:17.693Z,18.88
2019-06-07T04:14:17.639Z,18.81
2019-06-07T04:15:17.629Z,18.81
2019-06-07T04:16:17.617Z,18.80
2019-06-07T04:17:17.614Z,18.89
2019-06-07T04:18:17.590Z,18.80
2019-06-07T04:19:17.630Z,18.89
2019-06-07T04:20:17.572Z,18.84
2019-06-07T04:21:17.566Z,18.77
2019-06-07T04:22:17.549Z,18.80
2019-06-07T04:23:27.840Z,18.77
2019-06-07T04:24:18.565Z,18.78
2019-06-07T04:25:17.518Z,18.83
2019-06-07T04:26:17.509Z,18.81
2019-06-07T04:27:17.492Z,18.86
2019-06-07T04:28:17.482Z,18.83
2019-06-07T04:29:41.590Z,18.88
2019-06-07T04:30:18.644Z,18.88
2019-06-07T04:31:17.452Z,18.88
2019-06-07T04:32:17.442Z,18.84
2019-06-07T04:33:17.433Z,18.86
2019-06-07T04:34:17.480Z,18.81
2019-06-07T04:35:17.457Z,18.84
2019-06-07T04:36:17.397Z,18.80
2019-06-07T04:37:17.385Z,18.81
2019-06-07T04:38:17.379Z,18.81
2019-06-07T04:39:17.506Z,18.80
2019-06-07T04:40:17.396Z,18.86
2019-06-07T04:41:17.344Z,18.88
2019-06-07T04:42:17.330Z,18.80
2019-06-07T04:43:17.328Z,18.80
2019-06-07T04:44:17.315Z,18.81
2019-06-07T04:45:37.321Z,18.84
2019-06-07T04:46:18.291Z,18.81
2019-06-07T04:47:17.285Z,18.88
2019-06-07T04:48:17.275Z,18.89
2019-06-07T04:49:17.267Z,18.93
2019-06-07T04:50:17.274Z,18.86
2019-06-07T04:51:17.263Z,18.98
2019-06-07T04:52:17.229Z,18.81
2019-06-07T04:53:17.214Z,18.92
2019-06-07T04:54:17.208Z,18.93
2019-06-07T04:55:17.233Z,18.90
2019-06-07T04:56:17.186Z,18.90
2019-06-07T04:57:17.171Z,18.98
2019-06-07T04:58:17.163Z,18.95
2019-06-07T05:00:00.475Z,18.95
2019-06-07T05:00:49.012Z,18.88
2019-06-07T05:01:27.171Z,18.89
2019-06-07T05:02:18.119Z,18.90
2019-06-07T05:03:17.122Z,18.92
2019-06-07T05:04:17.184Z,18.93
2019-06-07T05:05:17.086Z,18.95
2019-06-07T05:06:17.138Z,18.98
2019-06-07T05:07:17.100Z,18.93
2019-06-07T05:08:27.360Z,18.95
2019-06-07T05:09:18.048Z,18.93
2019-06-07T05:10:17.045Z,18.96
2019-06-07T05:11:17.021Z,19.07
2019-06-07T05:12:17.038Z,18.95
2019-06-07T05:13:16.998Z,19.04
2019-06-07T05:14:16.995Z,19.07
2019-06-07T05:15:16.979Z,19.08
2019-06-07T05:16:16.971Z,19.08
2019-06-07T05:17:17.014Z,19.11
2019-06-07T05:18:16.950Z,19.18
2019-06-07T05:19:16.939Z,19.24
2019-06-07T05:20:16.922Z,19.22
2019-06-07T05:21:16.913Z,19.27
2019-06-07T05:22:16.963Z,19.22
2019-06-07T05:23:59.311Z,19.30
2019-06-07T05:24:17.882Z,19.22
2019-06-07T05:25:16.880Z,19.31
2019-06-07T05:26:16.864Z,19.24
2019-06-07T05:27:16.878Z,19.30
2019-06-07T05:28:16.844Z,19.26
2019-06-07T05:29:16.829Z,19.30
2019-06-07T05:30:57.675Z,19.24
2019-06-07T05:31:17.811Z,19.40
2019-06-07T05:32:16.855Z,19.26
2019-06-07T05:33:16.783Z,19.39
2019-06-07T05:34:16.780Z,19.34
2019-06-07T05:35:16.814Z,19.45
2019-06-07T05:36:16.749Z,19.45
2019-06-07T05:37:16.782Z,19.48
2019-06-07T05:38:16.747Z,19.49
2019-06-07T05:39:16.756Z,19.54
2019-06-07T05:40:16.770Z,19.56
2019-06-07T05:41:16.702Z,19.51
2019-06-07T05:42:16.691Z,19.51
2019-06-07T05:43:16.675Z,19.54
2019-06-07T05:44:16.674Z,19.54
2019-06-07T05:45:16.694Z,19.63
2019-06-07T05:46:16.646Z,19.66
2019-06-07T05:47:16.652Z,19.63
2019-06-07T05:48:16.667Z,19.59
2019-06-07T05:49:16.616Z,19.62
2019-06-07T05:50:38.422Z,19.59
2019-06-07T05:51:17.592Z,19.63
2019-06-07T05:52:16.582Z,19.74
2019-06-07T05:53:16.643Z,19.70
2019-06-07T05:54:16.622Z,19.71
2019-06-07T05:55:16.589Z,19.76
2019-06-07T05:56:17.089Z,19.74
2019-06-07T05:57:16.526Z,19.88
2019-06-07T05:58:16.520Z,19.89
2019-06-07T05:59:16.932Z,19.88
2019-06-07T06:00:16.497Z,19.84
2019-06-07T06:02:22.625Z,19.95
2019-06-07T06:03:17.467Z,19.95
2019-06-07T06:04:16.451Z,19.99
2019-06-07T06:05:32.737Z,19.96
2019-06-07T06:06:17.547Z,19.95
2019-06-07T06:07:16.428Z,19.89
2019-06-07T06:08:16.475Z,20.09
2019-06-07T06:09:16.418Z,20.03
2019-06-07T06:10:16.393Z,20.03
2019-06-07T06:11:16.375Z,20.03
2019-06-07T06:12:33.937Z,20.09
2019-06-07T06:13:17.383Z,20.04
2019-06-07T06:14:16.344Z,20.11
2019-06-07T06:15:16.358Z,20.10
2019-06-07T06:16:16.361Z,20.16
2019-06-07T06:17:16.327Z,20.18
2019-06-07T06:18:16.322Z,20.11
2019-06-07T06:19:16.296Z,20.22
2019-06-07T06:20:16.280Z,20.32
2019-06-07T06:21:19.903Z,20.26
2019-06-07T06:22:16.257Z,20.28
2019-06-07T06:23:16.272Z,20.24
2019-06-07T06:24:16.233Z,20.24
2019-06-07T06:25:31.701Z,20.28
2019-06-07T06:26:17.300Z,20.39
2019-06-07T06:28:02.066Z,20.32
2019-06-07T06:28:17.199Z,20.39
2019-06-07T06:29:16.186Z,20.39
2019-06-07T06:30:16.181Z,20.50
2019-06-07T06:31:16.196Z,20.50
2019-06-07T06:32:41.914Z,20.50
2019-06-07T06:33:33.163Z,20.50
2019-06-07T06:34:17.145Z,20.59
2019-06-07T06:35:16.122Z,20.59
2019-06-07T06:36:16.112Z,20.58
2019-06-07T06:37:16.140Z,20.66
2019-06-07T06:38:16.092Z,20.65
2019-06-07T06:39:16.075Z,20.70
2019-06-07T06:40:16.063Z,20.78
2019-06-07T06:41:16.841Z,20.82
2019-06-07T06:42:16.040Z,20.78
2019-06-07T06:43:16.098Z,20.88
2019-06-07T06:44:16.023Z,20.82
2019-06-07T06:45:16.011Z,20.90
2019-06-07T06:46:31.793Z,20.97
2019-06-07T06:47:16.994Z,21.06
2019-06-07T06:48:16.037Z,21.09
2019-06-07T06:49:15.966Z,21.17
2019-06-07T06:50:16.008Z,21.15
2019-06-07T06:51:15.951Z,21.27
2019-06-07T06:52:15.954Z,21.32
2019-06-07T06:53:15.968Z,21.27
2019-06-07T06:54:15.914Z,21.42
2019-06-07T06:55:15.931Z,21.37
2019-06-07T06:56:15.893Z,21.39
2019-06-07T06:57:20.013Z,21.48
2019-06-07T06:58:15.934Z,21.55
2019-06-07T06:59:39.097Z,21.61
2019-06-07T07:00:16.850Z,21.61
2019-06-07T07:01:15.875Z,21.69
2019-06-07T07:02:15.831Z,21.72
2019-06-07T07:03:56.644Z,21.72
2019-06-07T07:04:16.817Z,21.82
2019-06-07T07:05:15.799Z,21.91
2019-06-07T07:06:25.732Z,21.99
2019-06-07T07:07:16.827Z,22.13
2019-06-07T07:08:15.779Z,22.15
2019-06-07T07:09:15.774Z,22.22
2019-06-07T07:10:15.754Z,22.35
2019-06-07T07:11:15.779Z,22.51
2019-06-07T07:12:15.725Z,22.53
2019-06-07T07:13:15.711Z,22.53
2019-06-07T07:14:15.853Z,22.68
2019-06-07T07:15:15.700Z,22.78
2019-06-07T07:16:15.687Z,22.78
2019-06-07T07:17:15.672Z,22.90
2019-06-07T07:18:15.659Z,22.94
2019-06-07T07:19:15.687Z,23.08
2019-06-07T07:20:15.649Z,23.12
2019-06-07T07:21:15.634Z,23.09
2019-06-07T07:22:15.634Z,23.21
2019-06-07T07:23:15.609Z,23.18
2019-06-07T07:24:21.480Z,23.37
2019-06-07T07:25:16.599Z,23.41
2019-06-07T07:26:15.573Z,23.46
2019-06-07T07:27:15.585Z,23.62
2019-06-07T07:28:15.554Z,23.84
2019-06-07T07:29:15.541Z,24.40
2019-06-07T07:30:36.861Z,25.41
2019-06-07T07:31:16.542Z,26.58
2019-06-07T07:32:15.522Z,27.68
2019-06-07T07:33:15.640Z,28.91
2019-06-07T07:34:35.328Z,29.97
2019-06-07T07:35:16.495Z,30.90
2019-06-07T07:36:37.545Z,31.73
2019-06-07T07:37:16.460Z,32.60
2019-06-07T07:38:15.445Z,33.40
2019-06-07T07:39:15.440Z,34.16
2019-06-07T07:40:56.096Z,34.89
2019-06-07T07:41:16.421Z,35.68
2019-06-07T07:42:21.299Z,36.31
2019-06-07T07:43:16.451Z,36.89
2019-06-07T07:44:15.384Z,37.28
2019-06-07T07:45:15.372Z,37.51
2019-06-07T07:46:30.572Z,37.49
2019-06-07T07:47:16.350Z,37.80
2019-06-07T07:48:18.367Z,37.68
2019-06-07T07:49:15.334Z,38.21
2019-06-07T07:50:15.322Z,37.70
2019-06-07T07:51:15.349Z,38.36
2019-06-07T07:52:15.305Z,38.21
2019-06-07T07:53:15.294Z,38.04
2019-06-07T07:54:15.285Z,37.58
2019-06-07T07:55:15.312Z,36.67
2019-06-07T07:56:16.216Z,36.91
2019-06-07T07:57:15.260Z,37.45
2019-06-07T07:58:15.246Z,38.02
2019-06-07T07:59:15.242Z,38.52
2019-06-07T08:00:49.282Z,37.68
2019-06-07T08:01:16.268Z,37.42
2019-06-07T08:02:15.213Z,37.80
2019-06-07T08:03:15.203Z,36.27
2019-06-07T08:04:15.194Z,35.79
2019-06-07T08:05:25.265Z,36.30
2019-06-07T08:06:16.174Z,36.37
2019-06-07T08:07:15.206Z,34.61
2019-06-07T08:08:15.158Z,33.47
2019-06-07T08:09:15.146Z,32.74
2019-06-07T08:10:15.142Z,33.90
2019-06-07T08:11:15.134Z,34.62
2019-06-07T08:12:15.163Z,35.04
2019-06-07T08:13:24.506Z,34.14
2019-06-07T08:14:16.104Z,33.20
2019-06-07T08:15:15.096Z,32.48
2019-06-07T08:16:18.529Z,31.69
2019-06-07T08:17:15.074Z,32.33
2019-06-07T08:18:15.107Z,34.14
2019-06-07T08:19:15.066Z,35.49
2019-06-07T08:20:15.051Z,36.61
2019-06-07T08:21:25.341Z,36.98
2019-06-07T08:22:16.044Z,37.44
2019-06-07T08:23:15.020Z,38.23
2019-06-07T08:24:15.037Z,38.79
2019-06-07T08:25:15.015Z,39.30
2019-06-07T08:26:14.995Z,39.77
2019-06-07T08:27:25.873Z,40.23
2019-06-07T08:28:15.996Z,40.88
2019-06-07T08:29:15.026Z,41.38
2019-06-07T08:30:47.134Z,41.99
2019-06-07T08:31:15.954Z,42.38
2019-06-07T08:32:14.988Z,42.63
2019-06-07T08:33:25.867Z,42.53
2019-06-07T08:34:16.041Z,42.51
2019-06-07T08:36:02.587Z,42.47
2019-06-07T08:36:25.214Z,42.79
2019-06-07T08:37:15.907Z,42.26
2019-06-07T08:38:26.358Z,41.33
2019-06-07T08:39:15.881Z,40.26
2019-06-07T08:40:14.904Z,38.87
2019-06-07T08:41:14.872Z,37.82
2019-06-07T08:42:21.408Z,37.96
2019-06-07T08:43:20.633Z,37.56
2019-06-07T08:44:23.758Z,36.62
2019-06-07T08:45:15.855Z,37.21
2019-06-07T08:46:14.821Z,37.92
2019-06-07T08:47:20.604Z,37.49
2019-06-07T08:48:27.630Z,37.55
2019-06-07T08:49:15.817Z,38.65
2019-06-07T08:50:14.793Z,39.46
2019-06-07T08:51:14.783Z,40.04
2019-06-07T08:52:14.855Z,39.38
2019-06-07T08:53:14.776Z,37.93
2019-06-07T08:54:22.687Z,36.91
2019-06-07T08:55:15.752Z,35.30
2019-06-07T08:56:14.806Z,34.40
2019-06-07T08:57:21.364Z,33.99
2019-06-07T08:58:15.713Z,32.96
2019-06-07T08:59:14.709Z,32.63
2019-06-07T09:00:43.145Z,34.29
2019-06-07T09:01:15.742Z,35.52
2019-06-07T09:02:23.310Z,36.61
2019-06-07T09:03:15.679Z,37.65
2019-06-07T09:04:14.667Z,38.86
2019-06-07T09:05:14.688Z,40.08
2019-06-07T09:07:01.182Z,40.82
2019-06-07T09:07:19.868Z,40.99
2019-06-07T09:08:29.336Z,41.38
2019-06-07T09:09:15.623Z,41.53
2019-06-07T09:10:15.285Z,41.77
2019-06-07T09:11:14.603Z,42.14
2019-06-07T09:12:14.601Z,42.73
2019-06-07T09:13:14.595Z,43.43
2019-06-07T09:14:14.578Z,44.02
2019-06-07T09:15:22.688Z,44.48
2019-06-07T09:16:15.566Z,44.83
2019-06-07T09:17:14.566Z,45.05
2019-06-07T09:19:15.551Z,45.51
2019-06-07T09:20:34.983Z,45.74
2019-06-07T09:21:15.533Z,45.88
2019-06-07T09:22:14.524Z,46.00
2019-06-07T09:23:17.315Z,45.22
2019-06-07T09:24:14.507Z,43.95
2019-06-07T09:25:21.084Z,42.95
2019-06-07T09:26:18.340Z,43.00
2019-06-07T09:27:14.483Z,43.48
2019-06-07T09:28:19.831Z,43.83
2019-06-07T09:29:15.472Z,44.40
2019-06-07T09:30:18.525Z,45.00
2019-06-07T09:31:14.496Z,45.27
2019-06-07T09:32:18.074Z,45.02
2019-06-07T09:33:14.488Z,44.94
2019-06-07T09:34:15.552Z,45.35
2019-06-07T09:35:17.465Z,45.66
2019-06-07T09:36:14.501Z,45.58
2019-06-07T09:38:01.347Z,45.74
2019-06-07T09:38:25.054Z,46.31
2019-06-07T09:39:15.468Z,46.26
2019-06-07T09:40:24.878Z,46.43
2019-06-07T09:41:15.445Z,46.70
2019-06-07T09:42:14.415Z,46.61
2019-06-07T09:44:25.033Z,45.41
2019-06-07T09:45:15.383Z,44.79
2019-06-07T09:46:16.036Z,45.09
2019-06-07T09:47:31.349Z,45.27
2019-06-07T09:48:23.941Z,45.75
2019-06-07T09:49:28.869Z,46.03
2019-06-07T09:50:15.546Z,46.60
2019-06-07T09:51:20.053Z,46.60
2019-06-07T09:52:15.513Z,46.84
2019-06-07T09:53:22.274Z,46.92
2019-06-07T09:55:02.583Z,45.97
2019-06-07T09:55:24.342Z,45.92
2019-06-07T09:56:15.343Z,44.81
2019-06-07T09:57:17.560Z,44.17
2019-06-07T09:58:50.061Z,44.74
2019-06-07T09:59:15.337Z,44.96
2019-06-07T10:00:39.166Z,45.06
2019-06-07T10:01:15.272Z,43.03
2019-06-07T10:02:14.271Z,41.44
2019-06-07T10:03:21.238Z,40.16
2019-06-07T10:04:30.409Z,38.96
2019-06-07T10:05:15.243Z,37.97
2019-06-07T10:06:14.240Z,37.14
2019-06-07T10:07:30.714Z,36.59
2019-06-07T10:09:01.076Z,35.78
2019-06-07T10:11:15.223Z,33.87
2019-06-07T10:12:14.185Z,33.30
2019-06-07T10:13:14.222Z,32.80
2019-06-07T10:14:14.161Z,32.63
2019-06-07T10:15:14.161Z,32.36
2019-06-07T10:16:14.169Z,32.09
2019-06-07T10:17:14.154Z,31.94
2019-06-07T10:18:14.176Z,31.87
2019-06-07T10:19:14.125Z,32.26
2019-06-07T10:20:14.140Z,34.06
2019-06-07T10:21:15.045Z,35.46
2019-06-07T10:22:14.093Z,36.54
2019-06-07T10:23:14.082Z,37.47
2019-06-07T10:24:14.094Z,38.19
2019-06-07T10:25:14.070Z,38.49
2019-06-07T10:26:14.053Z,38.46
2019-06-07T10:27:14.071Z,38.28
2019-06-07T10:28:14.449Z,37.93
2019-06-07T10:29:14.028Z,37.03
2019-06-07T10:30:14.019Z,35.78
2019-06-07T10:31:14.016Z,34.83
2019-06-07T10:32:14.008Z,34.29
2019-06-07T10:33:14.003Z,33.67
2019-06-07T10:34:14.049Z,32.56
2019-06-07T10:35:16.513Z,32.73
2019-06-07T10:36:13.973Z,32.65
2019-06-07T10:37:15.683Z,32.83
2019-06-07T10:38:13.958Z,32.85
2019-06-07T10:39:13.987Z,32.85
2019-06-07T10:40:13.939Z,32.73
2019-06-07T10:41:13.926Z,32.60
2019-06-07T10:42:13.918Z,32.49
2019-06-07T10:43:14.592Z,32.19
2019-06-07T10:44:13.904Z,31.59
2019-06-07T10:45:13.936Z,31.31
2019-06-07T10:46:13.885Z,31.05
2019-06-07T10:47:13.876Z,30.73
2019-06-07T10:48:13.867Z,30.24
2019-06-07T10:49:13.853Z,29.90
2019-06-07T10:50:13.846Z,29.73
2019-06-07T10:51:14.775Z,29.23
2019-06-07T10:52:13.834Z,29.16
2019-06-07T10:53:13.821Z,29.01
2019-06-07T10:54:24.668Z,29.02
2019-06-07T10:55:14.820Z,28.76
2019-06-07T10:56:13.793Z,28.56
2019-06-07T10:57:16.050Z,28.51
2019-06-07T10:58:13.771Z,28.64
2019-06-07T10:59:13.841Z,28.56
2019-06-07T11:00:13.764Z,28.84
2019-06-07T11:01:14.403Z,28.94
2019-06-07T11:02:14.102Z,29.12
2019-06-07T11:03:14.348Z,29.08
2019-06-07T11:04:13.887Z,29.24
2019-06-07T11:05:14.436Z,29.49
2019-06-07T11:06:14.278Z,29.54
2019-06-07T11:07:14.457Z,29.75
2019-06-07T11:08:15.024Z,29.38
2019-06-07T11:09:14.258Z,28.78
2019-06-07T11:10:18.982Z,28.30
2019-06-07T11:11:14.674Z,28.25
2019-06-07T11:12:15.161Z,28.37
2019-06-07T11:13:14.486Z,28.39
2019-06-07T11:14:14.781Z,27.93
2019-06-07T11:15:14.915Z,27.74
2019-06-07T11:16:15.511Z,27.55
2019-06-07T11:17:13.571Z,27.33
2019-06-07T11:18:14.470Z,27.44
2019-06-07T11:19:17.285Z,27.44
2019-06-07T11:20:14.435Z,27.25
2019-06-07T11:21:14.316Z,27.17
2019-06-07T11:22:14.262Z,27.12
2019-06-07T11:23:14.290Z,27.20
2019-06-07T11:24:14.443Z,27.20
2019-06-07T11:25:14.731Z,27.11
2019-06-07T11:26:14.452Z,27.11
2019-06-07T11:27:16.016Z,26.97
2019-06-07T11:28:14.646Z,27.11
2019-06-07T11:29:14.950Z,27.36
2019-06-07T11:30:14.543Z,27.42
2019-06-07T11:31:14.942Z,27.63
2019-06-07T11:32:14.602Z,27.70
2019-06-07T11:33:15.902Z,27.59
2019-06-07T11:34:14.663Z,27.47
2019-06-07T11:35:15.319Z,27.68
2019-06-07T11:36:15.172Z,27.73
2019-06-07T11:37:14.245Z,27.59
2019-06-07T11:38:14.613Z,27.59
2019-06-07T11:39:15.059Z,27.58
2019-06-07T11:40:30.777Z,27.75
2019-06-07T11:41:15.659Z,27.78
2019-06-07T11:42:14.020Z,27.86
2019-06-07T11:43:13.295Z,27.90
2019-06-07T11:44:13.327Z,27.92
2019-06-07T11:45:15.231Z,27.80
2019-06-07T11:46:13.286Z,27.64
2019-06-07T11:47:14.536Z,27.63
2019-06-07T11:48:13.538Z,27.11
2019-06-07T11:49:19.654Z,26.68
2019-06-07T11:50:15.540Z,26.58
2019-06-07T11:51:14.747Z,26.43
2019-06-07T11:52:13.972Z,26.44
2019-06-07T11:53:14.615Z,26.60
2019-06-07T11:54:14.065Z,26.36
2019-06-07T11:55:13.944Z,26.41
2019-06-07T11:56:13.994Z,26.65
2019-06-07T11:57:13.157Z,26.75
2019-06-07T11:58:16.477Z,26.99
2019-06-07T11:59:15.222Z,27.10
2019-06-07T12:00:13.983Z,27.22
2019-06-07T12:01:14.933Z,27.07
2019-06-07T12:02:13.405Z,26.96
2019-06-07T12:03:13.887Z,26.83
2019-06-07T12:04:14.015Z,26.92
2019-06-07T12:05:17.126Z,26.92
2019-06-07T12:06:14.553Z,27.10
2019-06-07T12:07:14.187Z,27.12
2019-06-07T12:08:14.002Z,27.14
2019-06-07T12:09:14.353Z,27.05
2019-06-07T12:10:14.778Z,26.70
2019-06-07T12:11:14.284Z,26.65
2019-06-07T12:12:13.010Z,26.63
2019-06-07T12:13:13.024Z,26.48
2019-06-07T12:14:12.983Z,26.53
2019-06-07T12:15:13.036Z,26.40
2019-06-07T12:16:13.369Z,26.40
2019-06-07T12:17:13.418Z,26.03
2019-06-07T12:18:13.151Z,26.06
2019-06-07T12:19:13.603Z,25.88
2019-06-07T12:20:14.807Z,25.70
2019-06-07T12:21:13.656Z,25.72
2019-06-07T12:22:13.953Z,25.78
2019-06-07T12:23:14.155Z,25.75
2019-06-07T12:24:14.097Z,25.75
2019-06-07T12:25:15.027Z,25.80
2019-06-07T12:26:14.457Z,25.73
2019-06-07T12:27:12.952Z,25.80
2019-06-07T12:28:14.548Z,25.72
2019-06-07T12:29:12.910Z,25.54
2019-06-07T12:30:20.348Z,25.50
2019-06-07T12:31:14.915Z,25.48
2019-06-07T12:32:13.334Z,25.55
2019-06-07T12:33:13.573Z,25.66
2019-06-07T12:34:13.286Z,25.77
2019-06-07T12:35:13.614Z,25.75
2019-06-07T12:36:13.563Z,25.78
2019-06-07T12:37:13.905Z,25.91
2019-06-07T12:38:14.467Z,26.13
2019-06-07T12:39:13.854Z,26.18
2019-06-07T12:40:21.024Z,26.06
2019-06-07T12:41:14.090Z,26.31
2019-06-07T12:42:12.685Z,26.48
2019-06-07T12:43:12.817Z,26.55
2019-06-07T12:44:12.815Z,26.63
2019-06-07T12:45:12.999Z,26.58
2019-06-07T12:46:19.301Z,26.58
2019-06-07T12:47:15.030Z,26.60
2019-06-07T12:48:16.795Z,26.73
2019-06-07T12:49:14.947Z,26.74
2019-06-07T12:50:13.499Z,26.78
2019-06-07T12:51:13.152Z,26.80
2019-06-07T12:52:14.610Z,26.65
2019-06-07T12:53:13.606Z,26.68
2019-06-07T12:54:13.337Z,26.71
2019-06-07T12:55:13.895Z,26.77
2019-06-07T12:56:13.545Z,26.73
2019-06-07T12:57:13.839Z,26.58
2019-06-07T12:58:13.786Z,26.44